sensor_id;sensor_type;location;lat;lon;timestamp;temperature;humidity
25468;DHT22;13384;24.794;110.498;2022-09-01T00:01:16;25.30;99.90
25468;DHT22;13384;24.794;110.498;2022-09-01T00:03:51;25.10;99.90
25468;DHT22;13384;24.794;110.498;2022-09-01T00:06:24;25.10;99.90
25468;DHT22;13384;24.794;110.498;2022-09-01T00:08:58;25.40;99.90
25468;DHT22;13384;24.794;110.498;2022-09-01T00:11:30;25.50;99.90
25468;DHT22;13384;24.794;110.498;2022-09-01T00:14:03;25.20;99.90
25468;DHT22;13384;24.794;110.498;2022-09-01T00:16:56;25.20;99.90
25468;DHT22;13384;24.794;110.498;2022-09-01T00:19:28;25.40;99.90
25468;DHT22;13384;24.794;110.498;2022-09-01T00:22:00;25.50;99.90
25468;DHT22;13384;24.794;110.498;2022-09-01T00:24:45;25.70;99.90
25468;DHT22;13384;24.794;110.498;2022-09-01T00:27:16;25.70;99.90
25468;DHT22;13384;24.794;110.498;2022-09-01T00:29:49;25.50;99.90
25468;DHT22;13384;24.794;110.498;2022-09-01T00:32:20;25.60;99.90
25468;DHT22;13384;24.794;110.498;2022-09-01T00:34:51;25.40;99.90
25468;DHT22;13384;24.794;110.498;2022-09-01T00:37:23;25.50;99.90
25468;DHT22;13384;24.794;110.498;2022-09-01T00:39:54;25.60;99.90
25468;DHT22;13384;24.794;110.498;2022-09-01T00:42:25;25.50;99.90
25468;DHT22;13384;24.794;110.498;2022-09-01T00:44:56;25.30;99.90
25468;DHT22;13384;24.794;110.498;2022-09-01T00:47:27;25.40;99.90
25468;DHT22;13384;24.794;110.498;2022-09-01T00:49:59;25.50;99.90
25468;DHT22;13384;24.794;110.498;2022-09-01T00:52:40;25.60;99.90
25468;DHT22;13384;24.794;110.498;2022-09-01T00:55:22;25.80;99.90
25468;DHT22;13384;24.794;110.498;2022-09-01T00:57:57;25.90;99.90
25468;DHT22;13384;24.794;110.498;2022-09-01T01:00:31;25.90;99.90
25468;DHT22;13384;24.794;110.498;2022-09-01T01:03:02;25.80;99.90
25468;DHT22;13384;24.794;110.498;2022-09-01T01:05:38;26.00;99.90
25468;DHT22;13384;24.794;110.498;2022-09-01T01:08:10;25.90;99.90
25468;DHT22;13384;24.794;110.498;2022-09-01T01:10:41;25.90;99.90
25468;DHT22;13384;24.794;110.498;2022-09-01T01:13:16;25.80;99.90
25468;DHT22;13384;24.794;110.498;2022-09-01T01:15:47;25.80;99.90
25468;DHT22;13384;24.794;110.498;2022-09-01T01:18:18;26.00;99.90
25468;DHT22;13384;24.794;110.498;2022-09-01T01:21:02;26.00;99.90
25468;DHT22;13384;24.794;110.498;2022-09-01T01:24:08;26.20;99.90
25468;DHT22;13384;24.794;110.498;2022-09-01T01:26:56;26.50;99.90
25468;DHT22;13384;24.794;110.498;2022-09-01T01:29:34;26.60;99.90
25468;DHT22;13384;24.794;110.498;2022-09-01T01:32:09;26.30;99.90
25468;DHT22;13384;24.794;110.498;2022-09-01T01:34:41;26.20;99.90
25468;DHT22;13384;24.794;110.498;2022-09-01T01:37:17;26.10;99.90
25468;DHT22;13384;24.794;110.498;2022-09-01T01:39:53;26.10;99.90
25468;DHT22;13384;24.794;110.498;2022-09-01T01:42:24;26.20;99.90
25468;DHT22;13384;24.794;110.498;2022-09-01T01:44:58;26.30;99.90
25468;DHT22;13384;24.794;110.498;2022-09-01T01:47:30;26.40;99.90
25468;DHT22;13384;24.794;110.498;2022-09-01T01:50:01;26.50;99.90
25468;DHT22;13384;24.794;110.498;2022-09-01T01:52:46;26.70;99.90
25468;DHT22;13384;24.794;110.498;2022-09-01T01:55:27;26.90;99.90
25468;DHT22;13384;24.794;110.498;2022-09-01T01:58:01;26.70;99.90
25468;DHT22;13384;24.794;110.498;2022-09-01T02:00:34;26.90;99.90
25468;DHT22;13384;24.794;110.498;2022-09-01T02:03:06;26.60;99.90
25468;DHT22;13384;24.794;110.498;2022-09-01T02:05:37;26.70;99.90
25468;DHT22;13384;24.794;110.498;2022-09-01T02:08:09;26.60;99.90
25468;DHT22;13384;24.794;110.498;2022-09-01T02:10:43;26.80;99.90
25468;DHT22;13384;24.794;110.498;2022-09-01T02:13:17;26.80;99.90
25468;DHT22;13384;24.794;110.498;2022-09-01T02:15:56;26.90;99.90
25468;DHT22;13384;24.794;110.498;2022-09-01T02:18:36;26.80;99.90
25468;DHT22;13384;24.794;110.498;2022-09-01T02:21:09;26.80;99.90
25468;DHT22;13384;24.794;110.498;2022-09-01T02:23:51;26.80;99.90
25468;DHT22;13384;24.794;110.498;2022-09-01T02:26:43;26.90;99.90
25468;DHT22;13384;24.794;110.498;2022-09-01T02:29:22;27.30;99.90
25468;DHT22;13384;24.794;110.498;2022-09-01T02:32:01;27.60;99.90
25468;DHT22;13384;24.794;110.498;2022-09-01T02:34:33;27.50;99.30
25468;DHT22;13384;24.794;110.498;2022-09-01T02:37:04;27.40;99.50
25468;DHT22;13384;24.794;110.498;2022-09-01T02:39:35;27.50;99.30
25468;DHT22;13384;24.794;110.498;2022-09-01T02:42:06;27.70;99.20
25468;DHT22;13384;24.794;110.498;2022-09-01T02:44:43;27.50;99.10
25468;DHT22;13384;24.794;110.498;2022-09-01T02:47:17;27.70;99.40
25468;DHT22;13384;24.794;110.498;2022-09-01T02:49:58;27.80;99.20
25468;DHT22;13384;24.794;110.498;2022-09-01T02:52:50;28.00;98.70
25468;DHT22;13384;24.794;110.498;2022-09-01T02:55:24;28.00;98.50
25468;DHT22;13384;24.794;110.498;2022-09-01T02:57:55;28.10;98.50
25468;DHT22;13384;24.794;110.498;2022-09-01T03:00:27;27.90;98.50
25468;DHT22;13384;24.794;110.498;2022-09-01T03:03:01;27.70;98.30
25468;DHT22;13384;24.794;110.498;2022-09-01T03:05:46;27.60;98.40
25468;DHT22;13384;24.794;110.498;2022-09-01T03:08:17;27.70;98.20
25468;DHT22;13384;24.794;110.498;2022-09-01T03:10:49;28.00;98.30
25468;DHT22;13384;24.794;110.498;2022-09-01T03:13:23;28.00;97.30
25468;DHT22;13384;24.794;110.498;2022-09-01T03:15:54;28.00;97.60
25468;DHT22;13384;24.794;110.498;2022-09-01T03:18:26;28.00;98.00
25468;DHT22;13384;24.794;110.498;2022-09-01T03:20:57;28.20;97.50
25468;DHT22;13384;24.794;110.498;2022-09-01T03:23:30;28.30;97.40
25468;DHT22;13384;24.794;110.498;2022-09-01T03:26:22;28.00;97.30
25468;DHT22;13384;24.794;110.498;2022-09-01T03:28:54;28.40;97.10
25468;DHT22;13384;24.794;110.498;2022-09-01T03:31:26;28.20;97.30
25468;DHT22;13384;24.794;110.498;2022-09-01T03:34:04;28.40;96.90
25468;DHT22;13384;24.794;110.498;2022-09-01T03:36:46;28.60;96.60
25468;DHT22;13384;24.794;110.498;2022-09-01T03:39:27;28.70;96.50
25468;DHT22;13384;24.794;110.498;2022-09-01T03:42:00;28.90;96.70
25468;DHT22;13384;24.794;110.498;2022-09-01T03:44:31;29.40;96.30
25468;DHT22;13384;24.794;110.498;2022-09-01T03:47:06;29.40;96.00
25468;DHT22;13384;24.794;110.498;2022-09-01T03:49:44;29.10;96.10
25468;DHT22;13384;24.794;110.498;2022-09-01T03:52:18;29.30;95.60
25468;DHT22;13384;24.794;110.498;2022-09-01T03:55:04;29.30;95.70
25468;DHT22;13384;24.794;110.498;2022-09-01T03:57:36;29.30;95.50
25468;DHT22;13384;24.794;110.498;2022-09-01T04:00:12;29.70;95.40
25468;DHT22;13384;24.794;110.498;2022-09-01T04:02:54;30.00;94.60
25468;DHT22;13384;24.794;110.498;2022-09-01T04:05:30;30.00;94.40
25468;DHT22;13384;24.794;110.498;2022-09-01T04:08:06;29.80;94.70
25468;DHT22;13384;24.794;110.498;2022-09-01T04:10:46;29.90;94.50
25468;DHT22;13384;24.794;110.498;2022-09-01T04:13:26;30.00;94.30
25468;DHT22;13384;24.794;110.498;2022-09-01T04:16:01;30.20;94.40
25468;DHT22;13384;24.794;110.498;2022-09-01T04:18:33;30.10;93.80
25468;DHT22;13384;24.794;110.498;2022-09-01T04:21:05;30.10;94.10
25468;DHT22;13384;24.794;110.498;2022-09-01T04:23:39;30.50;93.80
25468;DHT22;13384;24.794;110.498;2022-09-01T04:26:12;30.50;93.80
25468;DHT22;13384;24.794;110.498;2022-09-01T04:28:48;30.60;93.50
25468;DHT22;13384;24.794;110.498;2022-09-01T04:31:21;30.50;93.90
25468;DHT22;13384;24.794;110.498;2022-09-01T04:33:53;30.70;93.30
25468;DHT22;13384;24.794;110.498;2022-09-01T04:36:26;30.60;92.80
25468;DHT22;13384;24.794;110.498;2022-09-01T04:39:01;30.70;93.20
25468;DHT22;13384;24.794;110.498;2022-09-01T04:41:43;30.30;93.60
25468;DHT22;13384;24.794;110.498;2022-09-01T04:44:15;30.50;93.90
25468;DHT22;13384;24.794;110.498;2022-09-01T04:46:48;30.60;93.00
25468;DHT22;13384;24.794;110.498;2022-09-01T04:49:20;30.80;92.90
25468;DHT22;13384;24.794;110.498;2022-09-01T04:51:53;30.80;93.30
25468;DHT22;13384;24.794;110.498;2022-09-01T04:54:29;30.50;93.20
25468;DHT22;13384;24.794;110.498;2022-09-01T04:57:02;30.50;93.30
25468;DHT22;13384;24.794;110.498;2022-09-01T04:59:39;30.90;93.00
25468;DHT22;13384;24.794;110.498;2022-09-01T05:02:12;30.90;93.30
25468;DHT22;13384;24.794;110.498;2022-09-01T05:04:43;31.20;93.20
25468;DHT22;13384;24.794;110.498;2022-09-01T05:07:15;31.20;92.80
25468;DHT22;13384;24.794;110.498;2022-09-01T05:09:47;30.70;93.00
25468;DHT22;13384;24.794;110.498;2022-09-01T05:12:44;30.70;93.30
25468;DHT22;13384;24.794;110.498;2022-09-01T05:15:17;30.70;93.60
25468;DHT22;13384;24.794;110.498;2022-09-01T05:17:50;30.20;93.50
25468;DHT22;13384;24.794;110.498;2022-09-01T05:20:27;30.10;93.80
25468;DHT22;13384;24.794;110.498;2022-09-01T05:22:59;30.20;93.90
25468;DHT22;13384;24.794;110.498;2022-09-01T05:25:51;30.10;94.10
25468;DHT22;13384;24.794;110.498;2022-09-01T05:28:24;30.10;94.00
25468;DHT22;13384;24.794;110.498;2022-09-01T05:30:59;30.00;94.20
25468;DHT22;13384;24.794;110.498;2022-09-01T05:33:33;29.90;94.60
25468;DHT22;13384;24.794;110.498;2022-09-01T05:36:06;30.00;94.60
25468;DHT22;13384;24.794;110.498;2022-09-01T05:38:39;30.10;94.50
25468;DHT22;13384;24.794;110.498;2022-09-01T05:41:15;30.20;94.60
25468;DHT22;13384;24.794;110.498;2022-09-01T05:43:50;29.80;93.70
25468;DHT22;13384;24.794;110.498;2022-09-01T05:46:28;29.80;94.60
25468;DHT22;13384;24.794;110.498;2022-09-01T05:49:01;29.60;94.00
25468;DHT22;13384;24.794;110.498;2022-09-01T05:51:34;29.40;94.20
25468;DHT22;13384;24.794;110.498;2022-09-01T05:54:23;29.40;94.50
25468;DHT22;13384;24.794;110.498;2022-09-01T05:56:57;29.40;94.40
25468;DHT22;13384;24.794;110.498;2022-09-01T05:59:46;29.70;94.50
25468;DHT22;13384;24.794;110.498;2022-09-01T06:02:25;29.70;94.30
25468;DHT22;13384;24.794;110.498;2022-09-01T06:05:18;29.90;94.30
25468;DHT22;13384;24.794;110.498;2022-09-01T06:08:12;29.80;94.20
25468;DHT22;13384;24.794;110.498;2022-09-01T06:10:44;29.90;94.00
25468;DHT22;13384;24.794;110.498;2022-09-01T06:13:17;29.60;94.40
25468;DHT22;13384;24.794;110.498;2022-09-01T06:15:55;29.80;94.40
25468;DHT22;13384;24.794;110.498;2022-09-01T06:18:28;29.80;94.40
25468;DHT22;13384;24.794;110.498;2022-09-01T06:21:04;30.00;94.60
25468;DHT22;13384;24.794;110.498;2022-09-01T06:23:59;30.60;93.80
25468;DHT22;13384;24.794;110.498;2022-09-01T06:26:32;31.10;93.80
25468;DHT22;13384;24.794;110.498;2022-09-01T06:29:05;30.90;93.00
25468;DHT22;13384;24.794;110.498;2022-09-01T06:31:45;31.00;92.90
25468;DHT22;13384;24.794;110.498;2022-09-01T06:34:20;31.10;93.10
25468;DHT22;13384;24.794;110.498;2022-09-01T06:36:52;31.40;92.50
25468;DHT22;13384;24.794;110.498;2022-09-01T06:39:23;31.40;93.00
25468;DHT22;13384;24.794;110.498;2022-09-01T06:41:58;31.80;93.00
25468;DHT22;13384;24.794;110.498;2022-09-01T06:45:05;32.00;91.90
25468;DHT22;13384;24.794;110.498;2022-09-01T06:47:40;32.20;91.00
25468;DHT22;13384;24.794;110.498;2022-09-01T06:50:16;32.50;91.20
25468;DHT22;13384;24.794;110.498;2022-09-01T06:53:09;31.70;91.00
25468;DHT22;13384;24.794;110.498;2022-09-01T06:56:07;32.00;91.00
25468;DHT22;13384;24.794;110.498;2022-09-01T06:58:41;32.20;90.60
25468;DHT22;13384;24.794;110.498;2022-09-01T07:01:18;32.50;90.70
25468;DHT22;13384;24.794;110.498;2022-09-01T07:03:53;32.40;90.40
25468;DHT22;13384;24.794;110.498;2022-09-01T07:06:45;31.80;90.70
25468;DHT22;13384;24.794;110.498;2022-09-01T07:10:05;31.40;91.80
25468;DHT22;13384;24.794;110.498;2022-09-01T07:13:04;32.00;91.70
25468;DHT22;13384;24.794;110.498;2022-09-01T07:15:42;32.10;91.30
25468;DHT22;13384;24.794;110.498;2022-09-01T07:18:40;32.00;91.60
25468;DHT22;13384;24.794;110.498;2022-09-01T07:21:26;31.80;91.20
25468;DHT22;13384;24.794;110.498;2022-09-01T07:24:12;31.80;91.60
25468;DHT22;13384;24.794;110.498;2022-09-01T07:27:03;31.60;91.10
25468;DHT22;13384;24.794;110.498;2022-09-01T07:29:37;32.00;91.30
25468;DHT22;13384;24.794;110.498;2022-09-01T07:32:09;31.80;91.30
25468;DHT22;13384;24.794;110.498;2022-09-01T07:35:01;31.90;91.30
25468;DHT22;13384;24.794;110.498;2022-09-01T07:37:40;31.80;90.50
25468;DHT22;13384;24.794;110.498;2022-09-01T07:40:34;31.80;90.90
25468;DHT22;13384;24.794;110.498;2022-09-01T07:43:48;31.50;90.70
25468;DHT22;13384;24.794;110.498;2022-09-01T07:46:43;31.10;91.00
25468;DHT22;13384;24.794;110.498;2022-09-01T07:49:41;31.30;91.60
25468;DHT22;13384;24.794;110.498;2022-09-01T07:52:55;31.30;91.20
25468;DHT22;13384;24.794;110.498;2022-09-01T07:55:27;31.50;91.40
25468;DHT22;13384;24.794;110.498;2022-09-01T07:58:02;31.20;91.10
25468;DHT22;13384;24.794;110.498;2022-09-01T08:00:33;31.50;91.30
25468;DHT22;13384;24.794;110.498;2022-09-01T08:03:08;32.00;90.60
25468;DHT22;13384;24.794;110.498;2022-09-01T08:05:40;31.80;90.50
25468;DHT22;13384;24.794;110.498;2022-09-01T08:08:33;31.70;90.50
25468;DHT22;13384;24.794;110.498;2022-09-01T08:11:29;31.70;90.90
25468;DHT22;13384;24.794;110.498;2022-09-01T08:14:21;31.80;90.50
25468;DHT22;13384;24.794;110.498;2022-09-01T08:16:53;31.60;90.50
25468;DHT22;13384;24.794;110.498;2022-09-01T08:19:25;32.00;90.30
25468;DHT22;13384;24.794;110.498;2022-09-01T08:22:11;32.50;89.00
25468;DHT22;13384;24.794;110.498;2022-09-01T08:25:09;32.70;89.00
25468;DHT22;13384;24.794;110.498;2022-09-01T08:27:41;32.50;88.50
25468;DHT22;13384;24.794;110.498;2022-09-01T08:30:13;32.60;88.90
25468;DHT22;13384;24.794;110.498;2022-09-01T08:32:45;32.40;88.40
25468;DHT22;13384;24.794;110.498;2022-09-01T08:35:45;32.20;89.30
25468;DHT22;13384;24.794;110.498;2022-09-01T08:38:18;32.10;90.00
25468;DHT22;13384;24.794;110.498;2022-09-01T08:40:55;32.40;89.60
25468;DHT22;13384;24.794;110.498;2022-09-01T08:43:44;31.90;90.10
25468;DHT22;13384;24.794;110.498;2022-09-01T08:46:36;32.00;90.40
25468;DHT22;13384;24.794;110.498;2022-09-01T08:49:22;32.40;88.80
25468;DHT22;13384;24.794;110.498;2022-09-01T08:52:37;32.40;88.20
25468;DHT22;13384;24.794;110.498;2022-09-01T08:57:56;32.40;88.10
25468;DHT22;13384;24.794;110.498;2022-09-01T09:01:10;31.80;90.00
25468;DHT22;13384;24.794;110.498;2022-09-01T09:10:21;32.40;89.10
25468;DHT22;13384;24.794;110.498;2022-09-01T09:13:33;32.10;89.50
25468;DHT22;13384;24.794;110.498;2022-09-01T09:16:11;32.20;90.20
25468;DHT22;13384;24.794;110.498;2022-09-01T09:18:56;31.60;90.20
25468;DHT22;13384;24.794;110.498;2022-09-01T09:21:43;31.20;90.60
25468;DHT22;13384;24.794;110.498;2022-09-01T09:24:30;31.50;91.10
25468;DHT22;13384;24.794;110.498;2022-09-01T09:27:28;31.70;90.70
25468;DHT22;13384;24.794;110.498;2022-09-01T09:30:04;31.80;90.30
25468;DHT22;13384;24.794;110.498;2022-09-01T09:32:44;31.80;90.60
25468;DHT22;13384;24.794;110.498;2022-09-01T09:35:41;31.90;90.40
25468;DHT22;13384;24.794;110.498;2022-09-01T09:38:28;31.70;90.50
25468;DHT22;13384;24.794;110.498;2022-09-01T09:43:55;32.10;90.30
25468;DHT22;13384;24.794;110.498;2022-09-01T09:46:44;32.20;90.30
25468;DHT22;13384;24.794;110.498;2022-09-01T09:52:25;32.20;90.20
25468;DHT22;13384;24.794;110.498;2022-09-01T09:55:05;31.80;89.80
25468;DHT22;13384;24.794;110.498;2022-09-01T09:57:38;31.70;90.80
25468;DHT22;13384;24.794;110.498;2022-09-01T10:00:32;31.70;91.80
25468;DHT22;13384;24.794;110.498;2022-09-01T10:03:08;31.60;90.20
25468;DHT22;13384;24.794;110.498;2022-09-01T10:05:49;31.60;90.60
25468;DHT22;13384;24.794;110.498;2022-09-01T10:10:58;31.50;92.10
25468;DHT22;13384;24.794;110.498;2022-09-01T10:13:31;31.50;91.50
25468;DHT22;13384;24.794;110.498;2022-09-01T10:16:08;31.30;91.60
25468;DHT22;13384;24.794;110.498;2022-09-01T10:18:50;31.20;91.70
25468;DHT22;13384;24.794;110.498;2022-09-01T10:21:36;31.10;92.00
25468;DHT22;13384;24.794;110.498;2022-09-01T10:24:37;31.00;91.60
25468;DHT22;13384;24.794;110.498;2022-09-01T10:30:18;30.50;92.70
25468;DHT22;13384;24.794;110.498;2022-09-01T10:32:51;30.50;93.00
25468;DHT22;13384;24.794;110.498;2022-09-01T10:35:32;30.40;93.50
25468;DHT22;13384;24.794;110.498;2022-09-01T10:38:20;30.40;93.70
25468;DHT22;13384;24.794;110.498;2022-09-01T10:40:54;30.30;94.50
25468;DHT22;13384;24.794;110.498;2022-09-01T10:43:47;30.20;95.30
25468;DHT22;13384;24.794;110.498;2022-09-01T10:51:58;29.80;96.80
25468;DHT22;13384;24.794;110.498;2022-09-01T10:54:51;29.60;96.90
25468;DHT22;13384;24.794;110.498;2022-09-01T10:57:37;29.50;97.00
25468;DHT22;13384;24.794;110.498;2022-09-01T11:06:06;29.30;97.10
25468;DHT22;13384;24.794;110.498;2022-09-01T11:08:44;29.20;99.00
25468;DHT22;13384;24.794;110.498;2022-09-01T11:11:39;29.00;98.60
25468;DHT22;13384;24.794;110.498;2022-09-01T11:14:25;28.80;98.20
25468;DHT22;13384;24.794;110.498;2022-09-01T11:20:07;28.80;98.60
25468;DHT22;13384;24.794;110.498;2022-09-01T11:25:43;28.50;99.90
25468;DHT22;13384;24.794;110.498;2022-09-01T11:28:39;28.30;99.90
25468;DHT22;13384;24.794;110.498;2022-09-01T11:31:25;28.40;99.90
25468;DHT22;13384;24.794;110.498;2022-09-01T11:34:13;28.40;99.90
25468;DHT22;13384;24.794;110.498;2022-09-01T11:36:57;28.30;99.80
25468;DHT22;13384;24.794;110.498;2022-09-01T11:39:58;28.30;99.80
25468;DHT22;13384;24.794;110.498;2022-09-01T11:42:40;28.30;99.90
25468;DHT22;13384;24.794;110.498;2022-09-01T11:45:20;28.30;99.80
25468;DHT22;13384;24.794;110.498;2022-09-01T11:48:13;28.30;99.90
25468;DHT22;13384;24.794;110.498;2022-09-01T11:50:44;28.20;99.90
25468;DHT22;13384;24.794;110.498;2022-09-01T11:53:26;28.10;99.90
25468;DHT22;13384;24.794;110.498;2022-09-01T11:56:16;28.10;99.90
25468;DHT22;13384;24.794;110.498;2022-09-01T11:58:49;28.10;99.90
25468;DHT22;13384;24.794;110.498;2022-09-01T12:01:32;28.10;99.90
25468;DHT22;13384;24.794;110.498;2022-09-01T12:04:31;28.10;99.90
25468;DHT22;13384;24.794;110.498;2022-09-01T12:07:12;28.00;99.90
25468;DHT22;13384;24.794;110.498;2022-09-01T12:09:45;27.90;99.90
25468;DHT22;13384;24.794;110.498;2022-09-01T12:12:37;27.90;99.90
25468;DHT22;13384;24.794;110.498;2022-09-01T12:15:22;27.90;99.90
25468;DHT22;13384;24.794;110.498;2022-09-01T12:18:10;27.80;99.90
25468;DHT22;13384;24.794;110.498;2022-09-01T12:21:03;27.80;99.90
25468;DHT22;13384;24.794;110.498;2022-09-01T12:23:38;27.50;99.90
25468;DHT22;13384;24.794;110.498;2022-09-01T12:26:29;27.70;99.90
25468;DHT22;13384;24.794;110.498;2022-09-01T12:29:20;27.60;99.90
25468;DHT22;13384;24.794;110.498;2022-09-01T12:31:55;27.60;99.90
25468;DHT22;13384;24.794;110.498;2022-09-01T12:37:24;27.50;99.90
25468;DHT22;13384;24.794;110.498;2022-09-01T12:39:59;27.50;99.90
25468;DHT22;13384;24.794;110.498;2022-09-01T12:42:32;27.30;99.90
25468;DHT22;13384;24.794;110.498;2022-09-01T12:45:39;27.30;99.90
25468;DHT22;13384;24.794;110.498;2022-09-01T12:48:43;27.30;99.90
25468;DHT22;13384;24.794;110.498;2022-09-01T12:51:24;27.30;99.90
25468;DHT22;13384;24.794;110.498;2022-09-01T12:54:00;27.20;99.90
25468;DHT22;13384;24.794;110.498;2022-09-01T12:56:35;27.30;99.90
25468;DHT22;13384;24.794;110.498;2022-09-01T12:59:49;27.20;99.90
25468;DHT22;13384;24.794;110.498;2022-09-01T13:06:02;27.00;99.90
25468;DHT22;13384;24.794;110.498;2022-09-01T13:08:53;27.00;99.90
25468;DHT22;13384;24.794;110.498;2022-09-01T13:11:25;27.00;99.90
25468;DHT22;13384;24.794;110.498;2022-09-01T13:14:17;27.00;99.90
25468;DHT22;13384;24.794;110.498;2022-09-01T13:16:48;27.00;99.90
25468;DHT22;13384;24.794;110.498;2022-09-01T13:19:21;26.90;99.90
25468;DHT22;13384;24.794;110.498;2022-09-01T13:21:57;26.80;99.90
25468;DHT22;13384;24.794;110.498;2022-09-01T13:24:49;26.80;99.90
25468;DHT22;13384;24.794;110.498;2022-09-01T13:27:20;26.90;99.90
25468;DHT22;13384;24.794;110.498;2022-09-01T13:29:53;26.80;99.90
25468;DHT22;13384;24.794;110.498;2022-09-01T13:32:26;26.80;99.90
25468;DHT22;13384;24.794;110.498;2022-09-01T13:34:58;26.80;99.90
25468;DHT22;13384;24.794;110.498;2022-09-01T13:37:30;26.80;99.90
25468;DHT22;13384;24.794;110.498;2022-09-01T13:40:04;26.70;99.90
25468;DHT22;13384;24.794;110.498;2022-09-01T13:42:38;26.60;99.90
25468;DHT22;13384;24.794;110.498;2022-09-01T13:45:10;26.50;99.90
25468;DHT22;13384;24.794;110.498;2022-09-01T13:48:04;26.40;99.90
25468;DHT22;13384;24.794;110.498;2022-09-01T13:51:08;26.40;99.90
25468;DHT22;13384;24.794;110.498;2022-09-01T13:53:45;26.40;99.90
25468;DHT22;13384;24.794;110.498;2022-09-01T13:56:16;26.40;99.90
25468;DHT22;13384;24.794;110.498;2022-09-01T13:58:47;26.50;99.90
25468;DHT22;13384;24.794;110.498;2022-09-01T14:01:19;26.40;99.90
25468;DHT22;13384;24.794;110.498;2022-09-01T14:03:53;26.40;99.90
25468;DHT22;13384;24.794;110.498;2022-09-01T14:06:44;26.40;99.90
25468;DHT22;13384;24.794;110.498;2022-09-01T14:09:19;26.50;99.90
25468;DHT22;13384;24.794;110.498;2022-09-01T14:11:54;26.50;99.90
25468;DHT22;13384;24.794;110.498;2022-09-01T14:14:27;26.60;99.90
25468;DHT22;13384;24.794;110.498;2022-09-01T14:17:22;26.50;99.90
25468;DHT22;13384;24.794;110.498;2022-09-01T14:20:19;26.60;99.90
25468;DHT22;13384;24.794;110.498;2022-09-01T14:22:51;26.30;99.90
25468;DHT22;13384;24.794;110.498;2022-09-01T14:25:25;26.30;99.90
25468;DHT22;13384;24.794;110.498;2022-09-01T14:27:58;26.40;99.90
25468;DHT22;13384;24.794;110.498;2022-09-01T14:30:32;26.40;99.90
25468;DHT22;13384;24.794;110.498;2022-09-01T14:33:03;26.10;99.90
25468;DHT22;13384;24.794;110.498;2022-09-01T14:35:42;25.80;99.90
25468;DHT22;13384;24.794;110.498;2022-09-01T14:38:33;26.00;99.90
25468;DHT22;13384;24.794;110.498;2022-09-01T14:41:05;26.20;99.90
25468;DHT22;13384;24.794;110.498;2022-09-01T14:43:56;26.20;99.90
25468;DHT22;13384;24.794;110.498;2022-09-01T14:46:32;26.10;99.90
25468;DHT22;13384;24.794;110.498;2022-09-01T14:49:26;26.00;99.90
25468;DHT22;13384;24.794;110.498;2022-09-01T14:51:58;26.00;99.90
25468;DHT22;13384;24.794;110.498;2022-09-01T14:54:40;25.90;99.90
25468;DHT22;13384;24.794;110.498;2022-09-01T14:57:31;25.60;99.90
25468;DHT22;13384;24.794;110.498;2022-09-01T15:00:08;25.80;99.90
25468;DHT22;13384;24.794;110.498;2022-09-01T15:02:43;25.80;99.90
25468;DHT22;13384;24.794;110.498;2022-09-01T15:05:15;25.80;99.90
25468;DHT22;13384;24.794;110.498;2022-09-01T15:07:48;25.90;99.90
25468;DHT22;13384;24.794;110.498;2022-09-01T15:10:23;25.80;99.90
25468;DHT22;13384;24.794;110.498;2022-09-01T15:12:59;25.80;99.90
25468;DHT22;13384;24.794;110.498;2022-09-01T15:15:34;25.90;99.90
25468;DHT22;13384;24.794;110.498;2022-09-01T15:18:05;25.80;99.90
25468;DHT22;13384;24.794;110.498;2022-09-01T15:20:41;25.70;99.90
25468;DHT22;13384;24.794;110.498;2022-09-01T15:23:23;25.70;99.90
25468;DHT22;13384;24.794;110.498;2022-09-01T15:25:58;25.80;99.90
25468;DHT22;13384;24.794;110.498;2022-09-01T15:28:50;25.70;99.90
25468;DHT22;13384;24.794;110.498;2022-09-01T15:31:42;25.50;99.90
25468;DHT22;13384;24.794;110.498;2022-09-01T15:34:16;25.60;99.90
25468;DHT22;13384;24.794;110.498;2022-09-01T15:36:49;25.80;99.90
25468;DHT22;13384;24.794;110.498;2022-09-01T15:39:21;25.90;99.90
25468;DHT22;13384;24.794;110.498;2022-09-01T15:42:05;25.80;99.90
25468;DHT22;13384;24.794;110.498;2022-09-01T15:44:37;25.80;99.90
25468;DHT22;13384;24.794;110.498;2022-09-01T15:47:09;25.70;99.90
25468;DHT22;13384;24.794;110.498;2022-09-01T15:49:40;25.70;99.90
25468;DHT22;13384;24.794;110.498;2022-09-01T15:52:11;25.60;99.90
25468;DHT22;13384;24.794;110.498;2022-09-01T15:54:43;25.40;99.90
25468;DHT22;13384;24.794;110.498;2022-09-01T15:57:20;25.50;99.90
25468;DHT22;13384;24.794;110.498;2022-09-01T15:59:51;25.50;99.90
25468;DHT22;13384;24.794;110.498;2022-09-01T16:02:44;25.00;99.90
25468;DHT22;13384;24.794;110.498;2022-09-01T16:05:16;25.30;99.90
25468;DHT22;13384;24.794;110.498;2022-09-01T16:07:50;25.40;99.90
25468;DHT22;13384;24.794;110.498;2022-09-01T16:10:22;25.50;99.90
25468;DHT22;13384;24.794;110.498;2022-09-01T16:13:13;25.40;99.90
25468;DHT22;13384;24.794;110.498;2022-09-01T16:16:31;25.40;99.90
25468;DHT22;13384;24.794;110.498;2022-09-01T16:18:56;25.40;99.90
25468;DHT22;13384;24.794;110.498;2022-09-01T16:22:00;25.50;99.90
25468;DHT22;13384;24.794;110.498;2022-09-01T16:24:50;25.40;99.90
25468;DHT22;13384;24.794;110.498;2022-09-01T16:27:30;25.40;99.90
25468;DHT22;13384;24.794;110.498;2022-09-01T16:30:09;25.50;99.90
25468;DHT22;13384;24.794;110.498;2022-09-01T16:32:44;25.30;99.90
25468;DHT22;13384;24.794;110.498;2022-09-01T16:35:17;25.20;99.90
25468;DHT22;13384;24.794;110.498;2022-09-01T16:40:51;25.30;99.90
25468;DHT22;13384;24.794;110.498;2022-09-01T16:47:01;25.20;99.90
25468;DHT22;13384;24.794;110.498;2022-09-01T16:49:38;25.10;99.90
25468;DHT22;13384;24.794;110.498;2022-09-01T16:52:26;25.20;99.90
25468;DHT22;13384;24.794;110.498;2022-09-01T17:03:35;25.20;99.90
25468;DHT22;13384;24.794;110.498;2022-09-01T17:06:31;25.30;99.90
25468;DHT22;13384;24.794;110.498;2022-09-01T17:14:46;24.80;99.90
25468;DHT22;13384;24.794;110.498;2022-09-01T17:17:47;24.90;99.90
25468;DHT22;13384;24.794;110.498;2022-09-01T17:20:24;24.90;99.90
25468;DHT22;13384;24.794;110.498;2022-09-01T17:23:23;24.70;99.90
25468;DHT22;13384;24.794;110.498;2022-09-01T17:26:14;24.70;99.90